sensor_id;sensor_type;location;lat;lon;timestamp;temperature;humidity
67054;SHT31;53960;51.826;5.850;2022-08-30T00:02:27;17.47;80.11
67054;SHT31;53960;51.826;5.850;2022-08-30T00:04:52;17.39;80.32
67054;SHT31;53960;51.826;5.850;2022-08-30T00:07:18;17.42;80.41
67054;SHT31;53960;51.826;5.850;2022-08-30T00:09:43;17.36;80.46
67054;SHT31;53960;51.826;5.850;2022-08-30T00:12:09;17.29;80.72
67054;SHT31;53960;51.826;5.850;2022-08-30T00:14:34;17.33;80.74
67054;SHT31;53960;51.826;5.850;2022-08-30T00:16:59;17.30;80.66
67054;SHT31;53960;51.826;5.850;2022-08-30T00:19:25;17.20;80.96
67054;SHT31;53960;51.826;5.850;2022-08-30T00:21:50;17.26;80.88
67054;SHT31;53960;51.826;5.850;2022-08-30T00:24:15;17.29;80.74
67054;SHT31;53960;51.826;5.850;2022-08-30T00:26:41;17.18;81.08
67054;SHT31;53960;51.826;5.850;2022-08-30T00:29:06;17.20;80.98
67054;SHT31;53960;51.826;5.850;2022-08-30T00:31:31;17.18;81.26
67054;SHT31;53960;51.826;5.850;2022-08-30T00:33:56;17.18;81.25
67054;SHT31;53960;51.826;5.850;2022-08-30T00:36:22;17.19;81.10
67054;SHT31;53960;51.826;5.850;2022-08-30T00:38:47;17.06;81.57
67054;SHT31;53960;51.826;5.850;2022-08-30T00:41:12;16.98;81.94
67054;SHT31;53960;51.826;5.850;2022-08-30T00:43:38;17.05;81.74
67054;SHT31;53960;51.826;5.850;2022-08-30T00:46:04;17.12;81.32
67054;SHT31;53960;51.826;5.850;2022-08-30T00:48:33;17.05;81.50
67054;SHT31;53960;51.826;5.850;2022-08-30T00:51:03;16.98;81.90
67054;SHT31;53960;51.826;5.850;2022-08-30T00:53:33;16.98;81.81
67054;SHT31;53960;51.826;5.850;2022-08-30T00:56:00;16.85;82.37
67054;SHT31;53960;51.826;5.850;2022-08-30T00:58:37;16.91;82.31
67054;SHT31;53960;51.826;5.850;2022-08-30T01:01:05;16.88;82.21
67054;SHT31;53960;51.826;5.850;2022-08-30T01:03:31;16.89;82.24
67054;SHT31;53960;51.826;5.850;2022-08-30T01:05:57;16.84;82.46
67054;SHT31;53960;51.826;5.850;2022-08-30T01:08:23;16.88;82.28
67054;SHT31;53960;51.826;5.850;2022-08-30T01:10:50;16.91;82.17
67054;SHT31;53960;51.826;5.850;2022-08-30T01:13:17;16.92;82.11
67054;SHT31;53960;51.826;5.850;2022-08-30T01:15:43;16.94;81.86
67054;SHT31;53960;51.826;5.850;2022-08-30T01:18:11;16.91;82.12
67054;SHT31;53960;51.826;5.850;2022-08-30T01:23:16;16.85;82.28
67054;SHT31;53960;51.826;5.850;2022-08-30T01:25:44;16.72;82.73
67054;SHT31;53960;51.826;5.850;2022-08-30T01:28:14;16.76;82.64
67054;SHT31;53960;51.826;5.850;2022-08-30T01:30:40;16.76;82.52
67054;SHT31;53960;51.826;5.850;2022-08-30T01:33:07;16.75;82.67
67054;SHT31;53960;51.826;5.850;2022-08-30T01:35:51;16.71;82.94
67054;SHT31;53960;51.826;5.850;2022-08-30T01:38:19;16.65;83.14
67054;SHT31;53960;51.826;5.850;2022-08-30T01:40:46;16.58;83.36
67054;SHT31;53960;51.826;5.850;2022-08-30T01:43:13;16.60;83.32
67054;SHT31;53960;51.826;5.850;2022-08-30T01:45:38;16.54;83.40
67054;SHT31;53960;51.826;5.850;2022-08-30T01:48:04;16.55;83.55
67054;SHT31;53960;51.826;5.850;2022-08-30T01:50:29;16.54;83.53
67054;SHT31;53960;51.826;5.850;2022-08-30T01:52:55;16.47;83.94
67054;SHT31;53960;51.826;5.850;2022-08-30T01:55:20;16.50;83.68
67054;SHT31;53960;51.826;5.850;2022-08-30T01:57:45;16.51;83.47
67054;SHT31;53960;51.826;5.850;2022-08-30T02:00:11;16.54;83.33
67054;SHT31;53960;51.826;5.850;2022-08-30T02:02:37;16.47;83.67
67054;SHT31;53960;51.826;5.850;2022-08-30T02:05:03;16.48;83.61
67054;SHT31;53960;51.826;5.850;2022-08-30T02:07:29;16.41;83.86
67054;SHT31;53960;51.826;5.850;2022-08-30T02:09:54;16.31;84.42
67054;SHT31;53960;51.826;5.850;2022-08-30T02:12:20;16.28;84.48
67054;SHT31;53960;51.826;5.850;2022-08-30T02:14:46;16.26;84.59
67054;SHT31;53960;51.826;5.850;2022-08-30T02:17:13;16.26;84.44
67054;SHT31;53960;51.826;5.850;2022-08-30T02:19:39;16.18;84.59
67054;SHT31;53960;51.826;5.850;2022-08-30T02:22:06;16.30;84.36
67054;SHT31;53960;51.826;5.850;2022-08-30T02:24:31;16.28;84.45
67054;SHT31;53960;51.826;5.850;2022-08-30T02:26:57;16.27;84.53
67054;SHT31;53960;51.826;5.850;2022-08-30T02:29:23;16.24;84.56
67054;SHT31;53960;51.826;5.850;2022-08-30T02:31:48;16.18;84.85
67054;SHT31;53960;51.826;5.850;2022-08-30T02:34:15;16.21;84.66
67054;SHT31;53960;51.826;5.850;2022-08-30T02:36:41;16.24;84.64
67054;SHT31;53960;51.826;5.850;2022-08-30T02:39:08;16.17;84.92
67054;SHT31;53960;51.826;5.850;2022-08-30T02:41:33;16.09;85.19
67054;SHT31;53960;51.826;5.850;2022-08-30T02:43:59;16.13;84.95
67054;SHT31;53960;51.826;5.850;2022-08-30T02:46:25;16.16;84.88
67054;SHT31;53960;51.826;5.850;2022-08-30T02:48:51;16.16;84.84
67054;SHT31;53960;51.826;5.850;2022-08-30T02:51:16;16.05;85.33
67054;SHT31;53960;51.826;5.850;2022-08-30T02:53:42;16.06;85.20
67054;SHT31;53960;51.826;5.850;2022-08-30T02:56:08;16.06;85.17
67054;SHT31;53960;51.826;5.850;2022-08-30T02:58:34;15.97;85.60
67054;SHT31;53960;51.826;5.850;2022-08-30T03:01:00;15.90;85.93
67054;SHT31;53960;51.826;5.850;2022-08-30T03:03:26;15.92;85.73
67054;SHT31;53960;51.826;5.850;2022-08-30T03:05:51;15.78;86.41
67054;SHT31;53960;51.826;5.850;2022-08-30T03:08:16;15.89;85.87
67054;SHT31;53960;51.826;5.850;2022-08-30T03:10:42;15.87;85.98
67054;SHT31;53960;51.826;5.850;2022-08-30T03:13:07;15.81;86.20
67054;SHT31;53960;51.826;5.850;2022-08-30T03:15:34;15.86;85.86
67054;SHT31;53960;51.826;5.850;2022-08-30T03:17:59;15.81;86.29
67054;SHT31;53960;51.826;5.850;2022-08-30T03:20:26;15.79;86.21
67054;SHT31;53960;51.826;5.850;2022-08-30T03:22:51;15.83;86.07
67054;SHT31;53960;51.826;5.850;2022-08-30T03:25:17;15.82;86.07
67054;SHT31;53960;51.826;5.850;2022-08-30T03:27:45;15.78;86.11
67054;SHT31;53960;51.826;5.850;2022-08-30T03:30:10;15.79;86.12
67054;SHT31;53960;51.826;5.850;2022-08-30T03:32:36;15.68;86.69
67054;SHT31;53960;51.826;5.850;2022-08-30T03:35:01;15.63;86.87
67054;SHT31;53960;51.826;5.850;2022-08-30T03:37:26;15.61;86.85
67054;SHT31;53960;51.826;5.850;2022-08-30T03:39:54;15.56;87.17
67054;SHT31;53960;51.826;5.850;2022-08-30T03:42:19;15.61;86.82
67054;SHT31;53960;51.826;5.850;2022-08-30T03:44:45;15.59;87.09
67054;SHT31;53960;51.826;5.850;2022-08-30T03:47:11;15.66;86.61
67054;SHT31;53960;51.826;5.850;2022-08-30T03:49:37;15.72;86.42
67054;SHT31;53960;51.826;5.850;2022-08-30T03:52:03;15.69;86.45
67054;SHT31;53960;51.826;5.850;2022-08-30T03:54:28;15.63;86.50
67054;SHT31;53960;51.826;5.850;2022-08-30T03:56:54;15.63;86.40
67054;SHT31;53960;51.826;5.850;2022-08-30T03:59:20;15.62;86.42
67054;SHT31;53960;51.826;5.850;2022-08-30T04:01:45;15.59;86.74
67054;SHT31;53960;51.826;5.850;2022-08-30T04:04:12;15.52;86.80
67054;SHT31;53960;51.826;5.850;2022-08-30T04:06:37;15.59;86.47
67054;SHT31;53960;51.826;5.850;2022-08-30T04:09:03;15.59;86.54
67054;SHT31;53960;51.826;5.850;2022-08-30T04:11:28;15.56;86.73
67054;SHT31;53960;51.826;5.850;2022-08-30T04:13:54;15.47;86.88
67054;SHT31;53960;51.826;5.850;2022-08-30T04:16:21;15.49;87.00
67054;SHT31;53960;51.826;5.850;2022-08-30T04:18:46;15.49;86.90
67054;SHT31;53960;51.826;5.850;2022-08-30T04:21:12;15.49;86.77
67054;SHT31;53960;51.826;5.850;2022-08-30T04:23:37;15.47;86.84
67054;SHT31;53960;51.826;5.850;2022-08-30T04:26:03;15.39;87.16
67054;SHT31;53960;51.826;5.850;2022-08-30T04:28:28;15.39;86.97
67054;SHT31;53960;51.826;5.850;2022-08-30T04:30:54;15.32;87.23
67054;SHT31;53960;51.826;5.850;2022-08-30T04:33:19;15.28;87.43
67054;SHT31;53960;51.826;5.850;2022-08-30T04:35:46;15.37;87.15
67054;SHT31;53960;51.826;5.850;2022-08-30T04:38:12;15.34;87.10
67054;SHT31;53960;51.826;5.850;2022-08-30T04:40:41;15.37;87.10
67054;SHT31;53960;51.826;5.850;2022-08-30T04:43:07;15.31;87.18
67054;SHT31;53960;51.826;5.850;2022-08-30T04:45:32;15.25;87.38
67054;SHT31;53960;51.826;5.850;2022-08-30T04:47:57;15.41;86.90
67054;SHT31;53960;51.826;5.850;2022-08-30T04:50:23;15.42;86.66
67054;SHT31;53960;51.826;5.850;2022-08-30T04:52:48;15.37;86.86
67054;SHT31;53960;51.826;5.850;2022-08-30T04:55:13;15.24;87.19
67054;SHT31;53960;51.826;5.850;2022-08-30T04:57:39;15.28;87.18
67054;SHT31;53960;51.826;5.850;2022-08-30T05:00:07;15.34;86.85
67054;SHT31;53960;51.826;5.850;2022-08-30T05:02:34;15.31;86.92
67054;SHT31;53960;51.826;5.850;2022-08-30T05:05:00;15.34;86.62
67054;SHT31;53960;51.826;5.850;2022-08-30T05:07:44;15.27;87.03
67054;SHT31;53960;51.826;5.850;2022-08-30T05:10:10;15.32;86.78
67054;SHT31;53960;51.826;5.850;2022-08-30T05:12:35;15.31;86.58
67054;SHT31;53960;51.826;5.850;2022-08-30T05:15:00;15.25;86.83
67054;SHT31;53960;51.826;5.850;2022-08-30T05:17:26;15.34;86.47
67054;SHT31;53960;51.826;5.850;2022-08-30T05:19:51;15.28;86.77
67054;SHT31;53960;51.826;5.850;2022-08-30T05:22:16;15.34;86.36
67054;SHT31;53960;51.826;5.850;2022-08-30T05:24:42;15.41;86.06
67054;SHT31;53960;51.826;5.850;2022-08-30T05:27:07;15.34;86.29
67054;SHT31;53960;51.826;5.850;2022-08-30T05:29:32;15.34;86.23
67054;SHT31;53960;51.826;5.850;2022-08-30T05:31:58;15.39;85.95
67054;SHT31;53960;51.826;5.850;2022-08-30T05:34:24;15.35;86.04
67054;SHT31;53960;51.826;5.850;2022-08-30T05:36:49;15.32;86.14
67054;SHT31;53960;51.826;5.850;2022-08-30T05:39:15;15.35;85.89
67054;SHT31;53960;51.826;5.850;2022-08-30T05:41:40;15.35;85.90
67054;SHT31;53960;51.826;5.850;2022-08-30T05:44:07;15.41;85.61
67054;SHT31;53960;51.826;5.850;2022-08-30T05:46:33;15.38;85.72
67054;SHT31;53960;51.826;5.850;2022-08-30T05:49:00;15.47;85.49
67054;SHT31;53960;51.826;5.850;2022-08-30T05:51:28;15.41;85.56
67054;SHT31;53960;51.826;5.850;2022-08-30T05:53:54;15.44;85.50
67054;SHT31;53960;51.826;5.850;2022-08-30T05:56:23;15.45;85.37
67054;SHT31;53960;51.826;5.850;2022-08-30T05:58:49;15.52;85.23
67054;SHT31;53960;51.826;5.850;2022-08-30T06:01:23;15.52;85.19
67054;SHT31;53960;51.826;5.850;2022-08-30T06:03:48;15.56;85.01
67054;SHT31;53960;51.826;5.850;2022-08-30T06:06:14;15.72;84.51
67054;SHT31;53960;51.826;5.850;2022-08-30T06:08:40;15.78;84.04
67054;SHT31;53960;51.826;5.850;2022-08-30T06:11:06;15.76;84.03
67054;SHT31;53960;51.826;5.850;2022-08-30T06:13:31;15.87;83.72
67054;SHT31;53960;51.826;5.850;2022-08-30T06:15:57;16.03;83.02
67054;SHT31;53960;51.826;5.850;2022-08-30T06:18:22;16.05;83.07
67054;SHT31;53960;51.826;5.850;2022-08-30T06:20:47;16.02;82.97
67054;SHT31;53960;51.826;5.850;2022-08-30T06:23:13;16.06;82.84
67054;SHT31;53960;51.826;5.850;2022-08-30T06:25:42;16.09;82.59
67054;SHT31;53960;51.826;5.850;2022-08-30T06:28:08;16.13;82.42
67054;SHT31;53960;51.826;5.850;2022-08-30T06:30:34;16.21;82.08
67054;SHT31;53960;51.826;5.850;2022-08-30T06:32:59;16.21;82.30
67054;SHT31;53960;51.826;5.850;2022-08-30T06:35:26;16.23;82.36
67054;SHT31;53960;51.826;5.850;2022-08-30T06:37:51;16.30;82.36
67054;SHT31;53960;51.826;5.850;2022-08-30T06:40:16;16.38;81.50
67054;SHT31;53960;51.826;5.850;2022-08-30T06:42:44;16.45;81.45
67054;SHT31;53960;51.826;5.850;2022-08-30T06:45:10;16.55;81.25
67054;SHT31;53960;51.826;5.850;2022-08-30T06:47:35;16.58;80.90
67054;SHT31;53960;51.826;5.850;2022-08-30T06:50:01;16.69;80.54
67054;SHT31;53960;51.826;5.850;2022-08-30T06:52:26;16.65;80.32
67054;SHT31;53960;51.826;5.850;2022-08-30T06:54:53;16.69;80.28
67054;SHT31;53960;51.826;5.850;2022-08-30T06:57:19;16.67;80.36
67054;SHT31;53960;51.826;5.850;2022-08-30T06:59:44;16.78;79.74
67054;SHT31;53960;51.826;5.850;2022-08-30T07:02:09;16.85;79.49
67054;SHT31;53960;51.826;5.850;2022-08-30T07:04:35;16.98;78.89
67054;SHT31;53960;51.826;5.850;2022-08-30T07:07:00;17.06;78.34
67054;SHT31;53960;51.826;5.850;2022-08-30T07:09:26;17.11;78.17
67054;SHT31;53960;51.826;5.850;2022-08-30T07:11:51;17.15;77.92
67054;SHT31;53960;51.826;5.850;2022-08-30T07:14:18;17.18;77.64
67054;SHT31;53960;51.826;5.850;2022-08-30T07:16:44;17.22;77.67
67054;SHT31;53960;51.826;5.850;2022-08-30T07:19:09;17.30;77.07
67054;SHT31;53960;51.826;5.850;2022-08-30T07:21:38;17.36;76.44
67054;SHT31;53960;51.826;5.850;2022-08-30T07:24:05;17.39;76.22
67054;SHT31;53960;51.826;5.850;2022-08-30T07:26:35;17.43;76.21
67054;SHT31;53960;51.826;5.850;2022-08-30T07:29:02;17.47;76.03
67054;SHT31;53960;51.826;5.850;2022-08-30T07:31:29;17.56;76.07
67054;SHT31;53960;51.826;5.850;2022-08-30T07:33:54;17.66;75.56
67054;SHT31;53960;51.826;5.850;2022-08-30T07:36:20;17.70;75.77
67054;SHT31;53960;51.826;5.850;2022-08-30T07:38:47;17.75;74.98
67054;SHT31;53960;51.826;5.850;2022-08-30T07:41:19;17.90;74.44
67054;SHT31;53960;51.826;5.850;2022-08-30T07:43:45;18.00;73.97
67054;SHT31;53960;51.826;5.850;2022-08-30T07:46:10;18.09;73.94
67054;SHT31;53960;51.826;5.850;2022-08-30T07:48:36;18.09;73.09
67054;SHT31;53960;51.826;5.850;2022-08-30T07:51:01;18.21;72.91
67054;SHT31;53960;51.826;5.850;2022-08-30T07:53:29;18.35;72.38
67054;SHT31;53960;51.826;5.850;2022-08-30T07:55:54;18.38;71.86
67054;SHT31;53960;51.826;5.850;2022-08-30T07:58:20;18.43;70.62
67054;SHT31;53960;51.826;5.850;2022-08-30T08:00:45;18.51;70.33
67054;SHT31;53960;51.826;5.850;2022-08-30T08:03:11;18.60;69.96
67054;SHT31;53960;51.826;5.850;2022-08-30T08:05:41;18.66;69.49
67054;SHT31;53960;51.826;5.850;2022-08-30T08:08:08;18.76;69.20
67054;SHT31;53960;51.826;5.850;2022-08-30T08:10:36;18.77;68.96
67054;SHT31;53960;51.826;5.850;2022-08-30T08:13:02;18.83;68.01
67054;SHT31;53960;51.826;5.850;2022-08-30T08:15:28;18.90;67.97
67054;SHT31;53960;51.826;5.850;2022-08-30T08:17:53;19.01;68.34
67054;SHT31;53960;51.826;5.850;2022-08-30T08:20:18;19.07;68.57
67054;SHT31;53960;51.826;5.850;2022-08-30T08:22:44;19.15;67.50
67054;SHT31;53960;51.826;5.850;2022-08-30T08:25:09;19.14;66.94
67054;SHT31;53960;51.826;5.850;2022-08-30T08:27:35;19.22;67.18
67054;SHT31;53960;51.826;5.850;2022-08-30T08:30:00;19.32;66.97
67054;SHT31;53960;51.826;5.850;2022-08-30T08:32:25;19.54;66.05
67054;SHT31;53960;51.826;5.850;2022-08-30T08:34:50;19.65;65.01
67054;SHT31;53960;51.826;5.850;2022-08-30T08:37:16;19.71;64.27
67054;SHT31;53960;51.826;5.850;2022-08-30T08:39:42;19.76;63.98
67054;SHT31;53960;51.826;5.850;2022-08-30T08:42:30;19.76;63.57
67054;SHT31;53960;51.826;5.850;2022-08-30T08:45:05;19.72;63.96
67054;SHT31;53960;51.826;5.850;2022-08-30T08:50:16;19.89;64.91
67054;SHT31;53960;51.826;5.850;2022-08-30T08:52:58;19.94;64.90
67054;SHT31;53960;51.826;5.850;2022-08-30T08:55:47;20.06;64.01
67054;SHT31;53960;51.826;5.850;2022-08-30T08:58:28;20.13;63.80
67054;SHT31;53960;51.826;5.850;2022-08-30T09:00:54;20.17;63.35
67054;SHT31;53960;51.826;5.850;2022-08-30T09:03:23;20.26;63.25
67054;SHT31;53960;51.826;5.850;2022-08-30T09:05:49;20.34;62.60
67054;SHT31;53960;51.826;5.850;2022-08-30T09:08:17;20.45;62.57
67054;SHT31;53960;51.826;5.850;2022-08-30T09:10:51;20.52;62.68
67054;SHT31;53960;51.826;5.850;2022-08-30T09:13:18;20.64;61.83
67054;SHT31;53960;51.826;5.850;2022-08-30T09:15:44;20.65;61.25
67054;SHT31;53960;51.826;5.850;2022-08-30T09:18:10;20.69;61.05
67054;SHT31;53960;51.826;5.850;2022-08-30T09:20:43;20.72;61.52
67054;SHT31;53960;51.826;5.850;2022-08-30T09:26:03;20.82;60.04
67054;SHT31;53960;51.826;5.850;2022-08-30T09:28:49;20.82;59.91
67054;SHT31;53960;51.826;5.850;2022-08-30T09:31:20;21.02;59.20
67054;SHT31;53960;51.826;5.850;2022-08-30T09:36:25;21.18;58.60
67054;SHT31;53960;51.826;5.850;2022-08-30T09:39:03;21.15;58.41
67054;SHT31;53960;51.826;5.850;2022-08-30T09:41:37;21.19;58.80
67054;SHT31;53960;51.826;5.850;2022-08-30T09:46:43;21.51;57.83
67054;SHT31;53960;51.826;5.850;2022-08-30T09:49:38;21.58;57.06
67054;SHT31;53960;51.826;5.850;2022-08-30T09:52:12;21.70;56.21
67054;SHT31;53960;51.826;5.850;2022-08-30T10:00:19;21.78;54.85
67054;SHT31;53960;51.826;5.850;2022-08-30T10:08:28;21.90;54.16
67054;SHT31;53960;51.826;5.850;2022-08-30T10:11:00;22.01;53.71
67054;SHT31;53960;51.826;5.850;2022-08-30T10:18:36;22.15;52.25
67054;SHT31;53960;51.826;5.850;2022-08-30T10:21:13;22.19;52.04
67054;SHT31;53960;51.826;5.850;2022-08-30T10:23:42;22.17;52.28
67054;SHT31;53960;51.826;5.850;2022-08-30T10:31:45;22.17;51.79
67054;SHT31;53960;51.826;5.850;2022-08-30T10:34:26;22.24;51.40
67054;SHT31;53960;51.826;5.850;2022-08-30T10:36:58;22.29;50.52
67054;SHT31;53960;51.826;5.850;2022-08-30T10:39:28;22.42;51.37
67054;SHT31;53960;51.826;5.850;2022-08-30T10:42:04;22.46;51.32
67054;SHT31;53960;51.826;5.850;2022-08-30T10:44:35;22.48;50.84
67054;SHT31;53960;51.826;5.850;2022-08-30T10:47:24;22.72;50.69
67054;SHT31;53960;51.826;5.850;2022-08-30T10:50:23;22.76;50.35
67054;SHT31;53960;51.826;5.850;2022-08-30T10:52:53;22.89;49.66
67054;SHT31;53960;51.826;5.850;2022-08-30T10:55:30;22.86;48.93
67054;SHT31;53960;51.826;5.850;2022-08-30T10:58:02;23.08;49.56
67054;SHT31;53960;51.826;5.850;2022-08-30T11:00:53;23.28;48.75
67054;SHT31;53960;51.826;5.850;2022-08-30T11:14:11;23.34;48.89
67054;SHT31;53960;51.826;5.850;2022-08-30T11:16:41;23.24;49.42
67054;SHT31;53960;51.826;5.850;2022-08-30T11:19:21;23.31;48.72
67054;SHT31;53960;51.826;5.850;2022-08-30T11:21:47;23.27;49.05
67054;SHT31;53960;51.826;5.850;2022-08-30T11:24:16;23.21;48.13
67054;SHT31;53960;51.826;5.850;2022-08-30T11:29:09;23.14;47.94
67054;SHT31;53960;51.826;5.850;2022-08-30T11:31:55;23.14;48.75
67054;SHT31;53960;51.826;5.850;2022-08-30T11:37:09;23.33;49.01
67054;SHT31;53960;51.826;5.850;2022-08-30T11:42:32;23.47;48.57
67054;SHT31;53960;51.826;5.850;2022-08-30T11:47:59;23.68;48.11
67054;SHT31;53960;51.826;5.850;2022-08-30T11:50:53;23.61;48.03
67054;SHT31;53960;51.826;5.850;2022-08-30T11:53:35;23.62;48.17
67054;SHT31;53960;51.826;5.850;2022-08-30T11:56:19;23.47;48.05
67054;SHT31;53960;51.826;5.850;2022-08-30T11:58:53;23.47;47.64
67054;SHT31;53960;51.826;5.850;2022-08-30T12:03:56;23.52;47.65
67054;SHT31;53960;51.826;5.850;2022-08-30T12:06:56;23.54;47.40
67054;SHT31;53960;51.826;5.850;2022-08-30T12:12:06;23.50;47.50
67054;SHT31;53960;51.826;5.850;2022-08-30T12:14:52;23.55;47.30
67054;SHT31;53960;51.826;5.850;2022-08-30T12:20:29;23.69;47.17
67054;SHT31;53960;51.826;5.850;2022-08-30T12:22:56;23.69;46.90
67054;SHT31;53960;51.826;5.850;2022-08-30T12:25:37;23.85;46.96
67054;SHT31;53960;51.826;5.850;2022-08-30T12:28:28;24.05;46.36
67054;SHT31;53960;51.826;5.850;2022-08-30T12:30:53;24.20;45.35
67054;SHT31;53960;51.826;5.850;2022-08-30T12:33:28;24.16;44.98
67054;SHT31;53960;51.826;5.850;2022-08-30T12:35:57;24.12;45.88
67054;SHT31;53960;51.826;5.850;2022-08-30T12:38:24;24.16;45.58
67054;SHT31;53960;51.826;5.850;2022-08-30T12:40:52;24.17;45.13
67054;SHT31;53960;51.826;5.850;2022-08-30T12:43:25;24.27;45.67
67054;SHT31;53960;51.826;5.850;2022-08-30T12:45:52;24.23;45.05
67054;SHT31;53960;51.826;5.850;2022-08-30T12:48:19;24.22;45.14
67054;SHT31;53960;51.826;5.850;2022-08-30T12:50:50;24.34;44.94
67054;SHT31;53960;51.826;5.850;2022-08-30T12:53:41;24.30;44.89
67054;SHT31;53960;51.826;5.850;2022-08-30T12:56:09;24.30;45.00
67054;SHT31;53960;51.826;5.850;2022-08-30T12:58:45;24.33;45.26
67054;SHT31;53960;51.826;5.850;2022-08-30T13:01:27;24.51;45.41
67054;SHT31;53960;51.826;5.850;2022-08-30T13:04:20;24.53;44.38
67054;SHT31;53960;51.826;5.850;2022-08-30T13:06:59;24.47;44.68
67054;SHT31;53960;51.826;5.850;2022-08-30T13:09:47;24.41;44.94
67054;SHT31;53960;51.826;5.850;2022-08-30T13:12:25;24.37;45.55
67054;SHT31;53960;51.826;5.850;2022-08-30T13:14:51;24.59;45.35
67054;SHT31;53960;51.826;5.850;2022-08-30T13:17:25;24.56;44.79
67054;SHT31;53960;51.826;5.850;2022-08-30T13:20:19;24.43;44.48
67054;SHT31;53960;51.826;5.850;2022-08-30T13:23:06;24.47;44.48
67054;SHT31;53960;51.826;5.850;2022-08-30T13:25:34;24.40;44.45
67054;SHT31;53960;51.826;5.850;2022-08-30T13:28:00;24.50;44.11
67054;SHT31;53960;51.826;5.850;2022-08-30T13:30:27;24.67;44.54
67054;SHT31;53960;51.826;5.850;2022-08-30T13:32:52;24.90;44.43
67054;SHT31;53960;51.826;5.850;2022-08-30T13:35:18;24.90;43.50
67054;SHT31;53960;51.826;5.850;2022-08-30T13:37:43;24.95;43.73
67054;SHT31;53960;51.826;5.850;2022-08-30T13:40:10;24.80;43.66
67054;SHT31;53960;51.826;5.850;2022-08-30T13:42:36;24.88;43.53
67054;SHT31;53960;51.826;5.850;2022-08-30T13:45:02;24.94;43.68
67054;SHT31;53960;51.826;5.850;2022-08-30T13:47:29;24.90;43.73
67054;SHT31;53960;51.826;5.850;2022-08-30T13:49:54;24.82;43.43
67054;SHT31;53960;51.826;5.850;2022-08-30T13:52:21;24.77;43.44
67054;SHT31;53960;51.826;5.850;2022-08-30T13:54:51;24.84;43.68
67054;SHT31;53960;51.826;5.850;2022-08-30T13:57:18;24.82;43.69
67054;SHT31;53960;51.826;5.850;2022-08-30T13:59:45;24.87;43.46
67054;SHT31;53960;51.826;5.850;2022-08-30T14:02:10;24.70;43.68
67054;SHT31;53960;51.826;5.850;2022-08-30T14:04:35;24.71;44.34
67054;SHT31;53960;51.826;5.850;2022-08-30T14:07:01;24.81;43.67
67054;SHT31;53960;51.826;5.850;2022-08-30T14:09:26;24.77;43.58
67054;SHT31;53960;51.826;5.850;2022-08-30T14:11:51;24.49;44.06
67054;SHT31;53960;51.826;5.850;2022-08-30T14:14:17;24.40;44.67
67054;SHT31;53960;51.826;5.850;2022-08-30T14:16:43;24.34;44.61
67054;SHT31;53960;51.826;5.850;2022-08-30T14:19:09;24.41;44.67
67054;SHT31;53960;51.826;5.850;2022-08-30T14:21:36;24.46;44.59
67054;SHT31;53960;51.826;5.850;2022-08-30T14:24:02;24.56;44.02
67054;SHT31;53960;51.826;5.850;2022-08-30T14:26:42;24.64;43.88
67054;SHT31;53960;51.826;5.850;2022-08-30T14:29:10;24.61;44.09
67054;SHT31;53960;51.826;5.850;2022-08-30T14:31:38;24.61;43.46
67054;SHT31;53960;51.826;5.850;2022-08-30T14:34:04;24.56;43.30
67054;SHT31;53960;51.826;5.850;2022-08-30T14:36:30;24.41;43.81
67054;SHT31;53960;51.826;5.850;2022-08-30T14:38:55;24.46;44.01
67054;SHT31;53960;51.826;5.850;2022-08-30T14:41:22;24.59;43.73
67054;SHT31;53960;51.826;5.850;2022-08-30T14:43:49;24.61;42.84
67054;SHT31;53960;51.826;5.850;2022-08-30T14:46:14;24.60;43.04
67054;SHT31;53960;51.826;5.850;2022-08-30T14:48:39;24.59;43.21
67054;SHT31;53960;51.826;5.850;2022-08-30T14:51:14;24.61;43.21
67054;SHT31;53960;51.826;5.850;2022-08-30T14:53:40;24.56;43.90
67054;SHT31;53960;51.826;5.850;2022-08-30T14:56:08;24.54;43.40
67054;SHT31;53960;51.826;5.850;2022-08-30T14:58:34;24.61;43.15
67054;SHT31;53960;51.826;5.850;2022-08-30T15:00:59;24.56;43.29
67054;SHT31;53960;51.826;5.850;2022-08-30T15:03:24;24.67;43.26
67054;SHT31;53960;51.826;5.850;2022-08-30T15:05:51;24.81;43.09
67054;SHT31;53960;51.826;5.850;2022-08-30T15:08:17;24.84;42.94
67054;SHT31;53960;51.826;5.850;2022-08-30T15:10:42;24.90;42.99
67054;SHT31;53960;51.826;5.850;2022-08-30T15:13:08;24.90;42.08
67054;SHT31;53960;51.826;5.850;2022-08-30T15:15:34;24.81;42.27
67054;SHT31;53960;51.826;5.850;2022-08-30T15:17:59;24.75;42.56
67054;SHT31;53960;51.826;5.850;2022-08-30T15:20:24;24.72;42.69
67054;SHT31;53960;51.826;5.850;2022-08-30T15:22:51;24.72;42.42
67054;SHT31;53960;51.826;5.850;2022-08-30T15:25:17;24.78;42.59
67054;SHT31;53960;51.826;5.850;2022-08-30T15:27:42;24.87;42.07
67054;SHT31;53960;51.826;5.850;2022-08-30T15:30:08;24.82;41.92
67054;SHT31;53960;51.826;5.850;2022-08-30T15:32:33;24.75;41.76
67054;SHT31;53960;51.826;5.850;2022-08-30T15:34:59;24.59;42.26
67054;SHT31;53960;51.826;5.850;2022-08-30T15:37:24;24.59;42.79
67054;SHT31;53960;51.826;5.850;2022-08-30T15:39:51;24.61;42.73
67054;SHT31;53960;51.826;5.850;2022-08-30T15:42:17;24.71;41.97
67054;SHT31;53960;51.826;5.850;2022-08-30T15:44:50;24.70;42.10
67054;SHT31;53960;51.826;5.850;2022-08-30T15:47:19;24.53;42.49
67054;SHT31;53960;51.826;5.850;2022-08-30T15:49:53;24.36;43.17
67054;SHT31;53960;51.826;5.850;2022-08-30T15:52:19;24.40;42.96
67054;SHT31;53960;51.826;5.850;2022-08-30T15:54:44;24.40;43.10
67054;SHT31;53960;51.826;5.850;2022-08-30T15:57:09;24.37;42.74
67054;SHT31;53960;51.826;5.850;2022-08-30T15:59:35;24.49;42.52
67054;SHT31;53960;51.826;5.850;2022-08-30T16:02:00;24.47;42.40
67054;SHT31;53960;51.826;5.850;2022-08-30T16:04:25;24.43;42.25
67054;SHT31;53960;51.826;5.850;2022-08-30T16:06:50;24.44;42.28
67054;SHT31;53960;51.826;5.850;2022-08-30T16:09:16;24.46;42.23
67054;SHT31;53960;51.826;5.850;2022-08-30T16:11:41;24.47;41.88
67054;SHT31;53960;51.826;5.850;2022-08-30T16:14:07;24.47;41.91
67054;SHT31;53960;51.826;5.850;2022-08-30T16:16:34;24.43;42.09
67054;SHT31;53960;51.826;5.850;2022-08-30T16:19:01;24.34;42.56
67054;SHT31;53960;51.826;5.850;2022-08-30T16:21:31;24.39;42.32
67054;SHT31;53960;51.826;5.850;2022-08-30T16:23:59;24.46;42.27
67054;SHT31;53960;51.826;5.850;2022-08-30T16:26:26;24.30;42.35
67054;SHT31;53960;51.826;5.850;2022-08-30T16:28:53;24.36;42.12
67054;SHT31;53960;51.826;5.850;2022-08-30T16:31:19;24.44;42.17
67054;SHT31;53960;51.826;5.850;2022-08-30T16:33:45;24.34;42.03
67054;SHT31;53960;51.826;5.850;2022-08-30T16:36:11;24.29;42.68
67054;SHT31;53960;51.826;5.850;2022-08-30T16:38:37;24.16;42.97
67054;SHT31;53960;51.826;5.850;2022-08-30T16:41:04;24.14;42.61
67054;SHT31;53960;51.826;5.850;2022-08-30T16:43:30;24.05;42.78